Time;durP1;ratioP1;P1;durP2;ratioP2;P2;SDS_P1;SDS_P2;PMS_P1;PMS_P2;Temp;Humidity;BMP_temperature;BMP_pressure;BME280_temperature;BME280_humidity;BME280_pressure;Samples;Min_cycle;Max_cycle;Signal;HPM_P1;HPM_P2
2023/01/28 00:01:04;;;;;;;1.42;0.47;;;;;;;;;;20836112;28;20096;-61
2023/01/28 00:11:25;;;;;;;2.38;0.50;;;;;;;;;;20833837;28;20107;-61
2023/01/28 00:21:47;;;;;;;2.97;0.40;;;;;;;;;;20833666;28;20049;-59
2023/01/28 00:31:51;;;;;;;1.17;0.43;;;;;;;;;;20833585;28;20045;-60
2023/01/28 00:41:55;;;;;;;0.77;0.32;;;;;;;;;;20833535;28;20187;-58
2023/01/28 00:51:58;;;;;;;2.92;0.50;;;;;;;;;;20831263;28;20058;-60
2023/01/28 01:02:11;;;;;;;0.63;0.40;;;;;;;;;;20832221;28;20049;-60
2023/01/28 01:12:14;;;;;;;1.00;0.40;;;;;;;;;;20831126;28;20093;-60
2023/01/28 01:22:17;;;;;;;1.70;0.82;;;;;;;;;;20830273;28;20073;-59
2023/01/28 01:32:21;;;;;;;1.00;0.25;;;;;;;;;;20829870;28;20049;-59
2023/01/28 01:42:28;;;;;;;0.93;0.43;;;;;;;;;;20830920;28;20049;-60
2023/01/28 01:52:35;;;;;;;2.83;0.40;;;;;;;;;;20828652;28;20532;-60
2023/01/28 02:02:42;;;;;;;1.75;0.43;;;;;;;;;;20828720;28;20041;-59
2023/01/28 02:12:52;;;;;;;1.92;0.35;;;;;;;;;;20829358;28;20045;-60
2023/01/28 02:22:56;;;;;;;1.85;0.40;;;;;;;;;;20839724;28;20057;-60
2023/01/28 02:33:03;;;;;;;0.95;0.40;;;;;;;;;;20842802;28;20053;-61
2023/01/28 02:43:07;;;;;;;1.80;0.40;;;;;;;;;;20842425;28;20056;-59
2023/01/28 02:53:39;;;;;;;0.70;0.40;;;;;;;;;;20839955;28;20068;-59
2023/01/28 03:03:47;;;;;;;1.48;0.40;;;;;;;;;;20839352;28;20049;-60
2023/01/28 03:44:56;;;;;;;0.70;0.30;;;;;;;;;;20835691;28;20054;-59
2023/01/28 03:54:58;;;;;;;2.47;1.15;;;;;;;;;;20836583;28;20053;-59
2023/01/28 04:05:11;;;;;;;0.57;0.25;;;;;;;;;;20835960;28;20180;-60
2023/01/28 04:15:16;;;;;;;0.98;0.40;;;;;;;;;;20834659;28;20052;-59
2023/01/28 04:25:22;;;;;;;0.85;0.40;;;;;;;;;;20834135;28;20060;-59
2023/01/28 04:35:24;;;;;;;0.65;0.30;;;;;;;;;;20832126;28;20054;-59
2023/01/28 04:45:29;;;;;;;2.33;0.77;;;;;;;;;;20830315;28;20050;-59
2023/01/28 04:55:31;;;;;;;1.73;0.60;;;;;;;;;;20832436;28;20054;-57
2023/01/28 05:05:33;;;;;;;1.48;0.43;;;;;;;;;;20830825;28;20136;-57
2023/01/28 05:15:36;;;;;;;2.20;0.50;;;;;;;;;;20831824;28;20428;-59
2023/01/28 05:25:38;;;;;;;2.28;1.00;;;;;;;;;;20830326;28;20045;-60
2023/01/28 05:35:41;;;;;;;2.15;1.20;;;;;;;;;;20830959;28;20053;-60
2023/01/28 05:45:46;;;;;;;1.50;0.60;;;;;;;;;;20830795;28;20068;-59
2023/01/28 05:55:52;;;;;;;1.95;0.70;;;;;;;;;;20839204;28;20056;-60
2023/01/28 06:05:54;;;;;;;1.70;0.70;;;;;;;;;;20845440;28;20146;-57
2023/01/28 06:15:55;;;;;;;1.63;0.73;;;;;;;;;;20841683;28;20060;-57
2023/01/28 06:25:57;;;;;;;2.63;0.60;;;;;;;;;;20843690;28;20049;-58
2023/01/28 06:36:01;;;;;;;6.32;1.00;;;;;;;;;;20841916;28;20056;-59
2023/01/28 06:46:03;;;;;;;3.63;0.85;;;;;;;;;;20841301;28;20493;-58
2023/01/28 06:56:05;;;;;;;7.15;3.03;;;;;;;;;;20841406;28;20156;-59
2023/01/28 07:06:07;;;;;;;3.70;1.35;;;;;;;;;;20838556;28;20092;-58
2023/01/28 07:16:09;;;;;;;2.15;0.90;;;;;;;;;;20839247;28;20049;-59
2023/01/28 07:26:11;;;;;;;3.85;1.15;;;;;;;;;;20838121;28;20049;-58
2023/01/28 07:36:12;;;;;;;5.18;1.83;;;;;;;;;;20838159;28;20045;-58
2023/01/28 07:46:14;;;;;;;6.30;2.10;;;;;;;;;;20836803;28;20505;-58
2023/01/28 07:56:16;;;;;;;9.65;3.45;;;;;;;;;;20837115;28;20251;-59
2023/01/28 08:06:18;;;;;;;9.85;3.60;;;;;;;;;;20834302;28;20052;-58
2023/01/28 08:16:20;;;;;;;4.68;2.08;;;;;;;;;;20833406;28;20056;-57
2023/01/28 08:26:22;;;;;;;10.82;4.88;;;;;;;;;;20832831;28;20045;-58
2023/01/28 08:36:24;;;;;;;9.98;4.25;;;;;;;;;;20835021;28;20445;-60
2023/01/28 08:46:26;;;;;;;11.68;4.72;;;;;;;;;;20832291;28;20054;-58
2023/01/28 08:56:29;;;;;;;5.25;2.75;;;;;;;;;;20832387;28;20061;-59
2023/01/28 09:06:31;;;;;;;3.78;1.48;;;;;;;;;;20831731;28;20081;-57
2023/01/28 09:16:32;;;;;;;4.18;1.48;;;;;;;;;;20830249;28;20058;-57
2023/01/28 09:26:34;;;;;;;4.15;1.38;;;;;;;;;;20834525;28;20084;-58
2023/01/28 09:36:36;;;;;;;3.53;1.13;;;;;;;;;;20845950;28;20144;-57
2023/01/28 09:46:38;;;;;;;4.05;1.83;;;;;;;;;;20843113;28;20936;-59
2023/01/28 09:56:42;;;;;;;4.82;1.75;;;;;;;;;;20837832;28;20065;-57
2023/01/28 10:06:59;;;;;;;4.55;1.52;;;;;;;;;;20844402;28;20128;-58
2023/01/28 10:17:04;;;;;;;5.75;1.73;;;;;;;;;;20844089;28;20191;-60
2023/01/28 10:27:16;;;;;;;3.33;1.75;;;;;;;;;;20843690;28;20133;-59
2023/01/28 10:37:18;;;;;;;6.18;1.60;;;;;;;;;;20839954;28;20046;-59
2023/01/28 10:47:28;;;;;;;2.45;1.33;;;;;;;;;;20841318;28;20085;-58
2023/01/28 10:57:32;;;;;;;5.10;1.92;;;;;;;;;;20840851;28;20053;-60
2023/01/28 11:07:34;;;;;;;4.88;1.90;;;;;;;;;;20838441;28;20085;-59
2023/01/28 11:17:38;;;;;;;5.22;1.50;;;;;;;;;;20839267;28;20496;-58
2023/01/28 11:27:39;;;;;;;4.75;1.67;;;;;;;;;;20838700;28;20045;-60
2023/01/28 11:37:47;;;;;;;3.88;1.65;;;;;;;;;;20837750;28;20474;-61
2023/01/28 11:47:55;;;;;;;0.40;0.20;;;;;;;;;;20836002;28;20050;-61
2023/01/28 11:57:59;;;;;;;0.10;0.10;;;;;;;;;;20833542;28;20409;-58
2023/01/28 12:08:00;;;;;;;0.63;0.20;;;;;;;;;;20835759;28;20124;-58
2023/01/28 12:18:10;;;;;;;0.32;0.10;;;;;;;;;;20834786;28;20052;-61
2023/01/28 12:28:11;;;;;;;;;;;;;;;;;;20835128;28;20394;-61
2023/01/28 12:38:13;;;;;;;;;;;;;;;;;;20834287;28;19952;-58
2023/01/28 12:48:23;;;;;;;0.93;0.25;;;;;;;;;;20832086;28;19921;-58
2023/01/28 12:58:33;;;;;;;0.93;0.40;;;;;;;;;;20831246;28;20057;-59
2023/01/28 13:08:34;;;;;;;;;;;;;;;;;;20830099;28;20518;-58
2023/01/28 13:18:42;;;;;;;0.40;0.20;;;;;;;;;;20830504;28;19925;-58
2023/01/28 13:28:43;;;;;;;0.50;0.20;;;;;;;;;;20828938;28;20149;-60
2023/01/28 13:38:45;;;;;;;1.52;0.47;;;;;;;;;;20830730;28;20049;-59
2023/01/28 13:48:50;;;;;;;1.65;0.80;;;;;;;;;;20829152;28;20591;-58
2023/01/28 13:59:10;;;;;;;4.63;0.35;;;;;;;;;;20829885;28;20054;-59
2023/01/28 14:09:31;;;;;;;0.60;0.30;;;;;;;;;;20829894;28;20049;-59
2023/01/28 14:19:34;;;;;;;0.50;0.20;;;;;;;;;;20842955;28;20123;-58
2023/01/28 14:29:38;;;;;;;0.52;0.20;;;;;;;;;;20843843;28;20088;-59
2023/01/28 14:39:47;;;;;;;8.73;3.53;;;;;;;;;;20842540;28;20057;-58
2023/01/28 14:50:10;;;;;;;0.60;0.40;;;;;;;;;;20840035;28;20049;-58
2023/01/28 15:00:31;;;;;;;1.45;0.55;;;;;;;;;;20839509;28;20478;-59
2023/01/28 15:10:37;;;;;;;2.05;0.50;;;;;;;;;;20839254;28;20099;-60
2023/01/28 15:20:43;;;;;;;0.73;0.20;;;;;;;;;;20839709;28;20580;-57
2023/01/28 15:30:45;;;;;;;0.65;0.35;;;;;;;;;;20838167;28;20049;-56
2023/01/28 15:40:54;;;;;;;0.40;0.20;;;;;;;;;;20836949;28;20077;-57
2023/01/28 15:51:01;;;;;;;0.80;0.28;;;;;;;;;;20835722;28;20073;-61
2023/01/28 16:01:13;;;;;;;19.77;9.73;;;;;;;;;;20833576;28;20161;-57
2023/01/28 16:11:43;;;;;;;1.42;0.50;;;;;;;;;;20835986;28;20485;-58
2023/01/28 16:21:45;;;;;;;0.10;0.10;;;;;;;;;;20835528;28;20512;-59
2023/01/28 16:31:47;;;;;;;0.50;0.20;;;;;;;;;;20831994;28;20064;-58
2023/01/28 16:41:48;;;;;;;1.30;0.30;;;;;;;;;;20830313;28;20089;-59
2023/01/28 16:51:50;;;;;;;0.40;0.20;;;;;;;;;;20829889;28;20085;-58
2023/01/28 17:01:52;;;;;;;0.55;0.20;;;;;;;;;;20829869;28;20049;-61
2023/01/28 17:11:54;;;;;;;1.00;0.63;;;;;;;;;;20831305;28;20492;-62
2023/01/28 17:21:55;;;;;;;4.97;0.60;;;;;;;;;;20830675;28;20052;-60
2023/01/28 17:31:58;;;;;;;0.77;0.45;;;;;;;;;;20830518;28;20413;-57
2023/01/28 17:41:59;;;;;;;0.95;0.30;;;;;;;;;;20829725;28;20485;-56
2023/01/28 17:52:01;;;;;;;0.88;0.40;;;;;;;;;;20838807;28;20509;-61
2023/01/28 18:02:05;;;;;;;0.52;0.30;;;;;;;;;;20844507;28;20508;-59
2023/01/28 18:12:07;;;;;;;1.52;0.73;;;;;;;;;;20843632;28;20145;-59
2023/01/28 18:22:09;;;;;;;1.38;0.47;;;;;;;;;;20842711;28;20053;-59
2023/01/28 18:32:11;;;;;;;2.05;0.55;;;;;;;;;;20843509;28;20053;-60
2023/01/28 18:42:13;;;;;;;1.10;0.60;;;;;;;;;;20841307;28;20053;-62
2023/01/28 18:52:14;;;;;;;1.20;0.50;;;;;;;;;;20840463;28;20493;-59
2023/01/28 19:02:16;;;;;;;1.20;0.40;;;;;;;;;;20838457;28;20049;-60
2023/01/28 19:12:18;;;;;;;2.38;0.80;;;;;;;;;;20837763;28;20091;-59
2023/01/28 19:22:20;;;;;;;2.47;0.63;;;;;;;;;;20839145;28;20045;-58
2023/01/28 19:32:21;;;;;;;1.95;0.52;;;;;;;;;;20838325;28;20056;-61
2023/01/28 19:42:23;;;;;;;1.73;0.60;;;;;;;;;;20837788;28;20073;-60
2023/01/28 19:52:25;;;;;;;1.60;0.88;;;;;;;;;;20835265;28;20422;-61
2023/01/28 20:02:27;;;;;;;2.70;0.98;;;;;;;;;;20837760;28;20080;-59
2023/01/28 20:12:29;;;;;;;1.33;0.63;;;;;;;;;;20833886;28;20170;-58
2023/01/28 20:22:30;;;;;;;2.47;0.68;;;;;;;;;;20835284;28;20124;-60
2023/01/28 20:32:32;;;;;;;6.57;2.20;;;;;;;;;;20832884;28;20049;-60
2023/01/28 20:42:33;;;;;;;4.10;1.65;;;;;;;;;;20833687;28;20076;-57
2023/01/28 20:52:34;;;;;;;2.72;1.42;;;;;;;;;;20831623;28;20053;-61
2023/01/28 21:02:42;;;;;;;2.00;1.05;;;;;;;;;;20832532;28;20077;-59
2023/01/28 21:12:43;;;;;;;1.85;0.70;;;;;;;;;;20831911;28;20107;-59
2023/01/28 21:22:52;;;;;;;1.80;0.75;;;;;;;;;;20834013;28;20053;-59
2023/01/28 21:32:54;;;;;;;2.53;0.85;;;;;;;;;;20848267;28;20045;-59
2023/01/28 21:42:55;;;;;;;3.17;0.93;;;;;;;;;;20848100;28;20394;-60
2023/01/28 21:52:56;;;;;;;2.08;1.02;;;;;;;;;;20846145;28;20057;-59
2023/01/28 22:02:57;;;;;;;1.75;0.98;;;;;;;;;;20847733;28;20084;-58
2023/01/28 22:12:58;;;;;;;6.40;1.17;;;;;;;;;;20846304;28;20061;-59
2023/01/28 22:23:01;;;;;;;1.80;1.00;;;;;;;;;;20845152;28;20231;-61
2023/01/28 22:33:04;;;;;;;1.65;0.70;;;;;;;;;;20844183;28;20132;-59
2023/01/28 22:43:06;;;;;;;2.83;0.90;;;;;;;;;;20843693;28;20056;-62
2023/01/28 22:53:08;;;;;;;2.88;0.73;;;;;;;;;;20842203;28;20061;-62
2023/01/28 23:03:12;;;;;;;1.80;0.95;;;;;;;;;;20842139;28;20045;-62
2023/01/28 23:13:19;;;;;;;4.65;1.50;;;;;;;;;;20840310;28;20057;-62
2023/01/28 23:33:45;;;;;;;2.28;0.95;;;;;;;;;;20840073;28;20136;-61
2023/01/28 23:43:48;;;;;;;3.85;0.95;;;;;;;;;;20840078;28;20478;-57
2023/01/28 23:54:09;;;;;;;2.03;0.85;;;;;;;;;;20836760;28;20045;-62
